Terminal Aerodrome Forecast
Issued by NWS Buffalo, NY

Home | Current Version | Previous Version | Text Only | Print | Product List | Glossary On
Versions: 1 2 3 4 5 6 7 8 9 10 11 12 13 14 15 16 17 18 19 20 21 22 23 24 25 26 27
000
FTUS41 KBUF 222300
TAFROC
TAF
KROC 222338Z 2300/2324 VRB03KT P6SM SKC
     FM230400 22006KT P6SM SCT250
     FM231100 23010KT P6SM VCSH BKN080
     FM231300 24012KT 6SM -SHRA OVC040
     FM231800 33010KT P6SM BKN025=

USA.gov is the U.S. government's official web portal to all federal, state and local government web resources and services.